Time;durP1;ratioP1;P1;durP2;ratioP2;P2;SDS_P1;SDS_P2;PMS_P1;PMS_P2;Temp;Humidity;BMP_temperature;BMP_pressure;BME280_temperature;BME280_humidity;BME280_pressure;Samples;Min_cycle;Max_cycle;Signal;HPM_P1;HPM_P2
2022/04/22 00:01:52;;;;;;;33.53;25.27;;;27.50;98.20;;;;;;1866992;77;21087;-83
2022/04/22 00:04:23;;;;;;;35.75;26.12;;;27.50;98.50;;;;;;1859517;77;21197;-82
2022/04/22 00:06:54;;;;;;;37.25;26.10;;;27.50;98.70;;;;;;1848405;77;21224;-83
2022/04/22 00:09:25;;;;;;;40.05;26.30;;;27.50;98.60;;;;;;1859453;77;21181;-83
2022/04/22 00:11:56;;;;;;;40.83;29.02;;;27.50;98.70;;;;;;1855464;77;21170;-82
2022/04/22 00:14:27;;;;;;;44.08;30.70;;;27.60;99.00;;;;;;1857949;75;21106;-84
2022/04/22 00:17:01;;;;;;;41.73;29.00;;;27.50;98.90;;;;;;1856916;75;21616;-83
2022/04/22 00:19:32;;;;;;;45.38;31.50;;;27.60;99.10;;;;;;1854512;76;21129;-83
2022/04/22 00:22:03;;;;;;;38.90;31.25;;;27.60;99.20;;;;;;1847306;77;21193;-81
2022/04/22 00:24:37;;;;;;;34.53;25.37;;;27.70;99.30;;;;;;1861442;77;21083;-82
2022/04/22 00:27:08;;;;;;;33.67;25.70;;;27.60;98.80;;;;;;1861126;77;21193;-74
2022/04/22 00:29:39;;;;;;;35.78;24.92;;;27.60;98.90;;;;;;1861486;75;21157;-75
2022/04/22 00:32:10;;;;;;;35.45;24.32;;;27.80;98.40;;;;;;1876342;76;21528;-73
2022/04/22 00:34:41;;;;;;;29.12;22.32;;;27.60;98.80;;;;;;1842415;75;21616;-75
2022/04/22 00:37:13;;;;;;;31.17;22.75;;;27.70;98.90;;;;;;1837451;77;21064;-73
2022/04/22 00:39:44;;;;;;;31.85;22.90;;;27.70;99.10;;;;;;1837053;75;21558;-73
2022/04/22 00:42:15;;;;;;;31.17;23.10;;;27.90;99.00;;;;;;1840115;77;21068;-73
2022/04/22 00:44:47;;;;;;;31.73;21.87;;;27.90;98.90;;;;;;1848025;77;21539;-72
2022/04/22 00:47:19;;;;;;;30.20;21.65;;;27.90;98.70;;;;;;1811915;78;21133;-73
2022/04/22 00:49:51;;;;;;;31.57;22.20;;;27.80;98.90;;;;;;1780171;80;21666;-72
2022/04/22 00:52:22;;;;;;;33.60;23.47;;;27.90;98.80;;;;;;1776631;78;21272;-72
2022/04/22 00:54:53;;;;;;;31.93;22.22;;;28.10;98.50;;;;;;1777554;79;21161;-72
2022/04/22 00:57:25;;;;;;;30.90;22.73;;;28.00;98.70;;;;;;1764566;80;21101;-72
2022/04/22 00:59:55;;;;;;;36.15;24.05;;;28.00;98.70;;;;;;1799111;79;21234;-72
2022/04/22 01:02:26;;;;;;;29.25;23.05;;;28.20;98.50;;;;;;1797356;79;21268;-72
2022/04/22 01:10:02;;;;;;;31.77;23.60;;;28.00;96.90;;;;;;1800354;78;21613;-72
2022/04/22 01:12:36;;;;;;;32.10;25.37;;;28.20;96.80;;;;;;1814002;79;21566;-73
2022/04/22 01:15:07;;;;;;;37.50;26.23;;;28.10;96.50;;;;;;1805869;79;21553;-72
2022/04/22 01:17:39;;;;;;;34.83;25.02;;;28.10;96.40;;;;;;1803154;77;21180;-72
2022/04/22 01:20:11;;;;;;;42.90;26.75;;;28.20;96.60;;;;;;1833334;76;21154;-71
2022/04/22 01:22:42;;;;;;;32.53;24.57;;;28.20;96.50;;;;;;1859400;76;21227;-72
2022/04/22 01:25:13;;;;;;;34.73;25.23;;;28.30;96.60;;;;;;1872804;76;21584;-74
2022/04/22 01:27:45;;;;;;;39.90;26.05;;;28.40;96.50;;;;;;1869580;76;21208;-72
2022/04/22 01:30:17;;;;;;;36.33;25.48;;;28.50;96.30;;;;;;1872462;76;21086;-71
2022/04/22 01:32:52;;;;;;;39.18;26.75;;;28.60;96.20;;;;;;1875463;75;21106;-72
2022/04/22 01:35:24;;;;;;;39.45;26.62;;;28.60;95.80;;;;;;1881144;76;21074;-73
2022/04/22 01:37:55;;;;;;;37.20;26.85;;;28.80;96.00;;;;;;1882534;75;21223;-73
2022/04/22 01:40:26;;;;;;;36.95;26.65;;;28.70;95.90;;;;;;1879208;76;21131;-71
2022/04/22 01:42:57;;;;;;;38.48;27.13;;;28.80;96.00;;;;;;1854310;77;21551;-72
2022/04/22 01:45:29;;;;;;;38.60;26.75;;;28.90;95.80;;;;;;1859892;77;21669;-72
2022/04/22 01:48:00;;;;;;;33.33;22.62;;;28.90;95.80;;;;;;1841939;77;21172;-71
2022/04/22 01:50:31;;;;;;;33.80;22.32;;;28.90;95.60;;;;;;1828870;77;21717;-72
2022/04/22 01:53:03;;;;;;;34.15;23.42;;;28.90;95.50;;;;;;1869527;76;21098;-72
2022/04/22 01:55:37;;;;;;;27.70;20.17;;;29.00;95.30;;;;;;1848835;76;21101;-73
2022/04/22 01:58:08;;;;;;;28.02;20.75;;;29.30;95.00;;;;;;1848001;77;21099;-72
2022/04/22 02:00:42;;;;;;;29.02;21.57;;;29.30;94.90;;;;;;1862558;76;21569;-72
2022/04/22 02:03:13;;;;;;;29.52;21.00;;;29.50;94.70;;;;;;1888222;75;21068;-72
2022/04/22 02:05:44;;;;;;;31.82;19.95;;;29.60;94.20;;;;;;1861012;75;21149;-72
2022/04/22 02:08:16;;;;;;;28.52;19.55;;;29.80;93.70;;;;;;1882238;76;21545;-73
2022/04/22 02:10:48;;;;;;;26.70;20.30;;;29.90;93.40;;;;;;1865819;75;21219;-72
2022/04/22 02:13:20;;;;;;;31.52;20.08;;;30.30;93.20;;;;;;1867429;75;21197;-73
2022/04/22 02:15:51;;;;;;;25.55;20.27;;;30.40;92.80;;;;;;1864470;76;21145;-72
2022/04/22 02:18:22;;;;;;;26.68;19.23;;;30.30;92.30;;;;;;1864516;75;21163;-73
2022/04/22 02:20:53;;;;;;;28.10;20.50;;;30.40;91.90;;;;;;1848381;77;21106;-73
2022/04/22 02:23:25;;;;;;;25.85;18.65;;;30.60;92.10;;;;;;1840482;78;21602;-72
2022/04/22 02:25:57;;;;;;;36.10;20.23;;;30.70;91.90;;;;;;1840364;78;21562;-73
2022/04/22 02:28:32;;;;;;;27.02;19.10;;;30.70;91.40;;;;;;1855273;77;21598;-72
2022/04/22 02:31:04;;;;;;;26.87;19.52;;;30.90;91.00;;;;;;1849432;77;21578;-73
2022/04/22 02:33:36;;;;;;;28.10;18.70;;;30.90;90.40;;;;;;1861586;76;21087;-72
2022/04/22 02:36:09;;;;;;;26.87;19.60;;;31.00;90.80;;;;;;1852398;76;21149;-72
2022/04/22 02:38:42;;;;;;;25.75;19.02;;;31.00;90.30;;;;;;1848151;77;21114;-72
2022/04/22 02:46:19;;;;;;;25.62;19.75;;;31.20;90.00;;;;;;1855697;77;21673;-73
2022/04/22 02:48:53;;;;;;;29.45;20.77;;;31.20;89.40;;;;;;1848844;75;21142;-71
2022/04/22 02:51:24;;;;;;;28.12;18.67;;;31.40;89.60;;;;;;1847272;77;21236;-73
2022/04/22 02:53:56;;;;;;;26.40;19.80;;;31.70;93.50;;;;;;1848676;77;21601;-73
2022/04/22 02:56:27;;;;;;;30.37;20.30;;;31.70;85.90;;;;;;1843249;77;21158;-73
2022/04/22 02:59:02;;;;;;;28.38;19.52;;;31.90;90.80;;;;;;1845116;77;21162;-72
2022/04/22 03:01:35;;;;;;;27.85;21.25;;;31.90;99.20;;;;;;1800428;78;21208;-73
2022/04/22 03:04:06;;;;;;;28.12;20.12;;;32.10;87.60;;;;;;1795691;79;21144;-72
2022/04/22 03:06:37;;;;;;;27.25;20.10;;;;;;;;;;1803532;78;21096;-73
2022/04/22 03:09:08;;;;;;;24.63;19.70;;;;;;;;;;1804772;79;21099;-71
2022/04/22 03:11:43;;;;;;;27.48;20.90;;;32.80;99.90;;;;;;1807071;77;21225;-72
2022/04/22 03:14:19;;;;;;;27.50;20.30;;;32.60;96.50;;;;;;1807005;77;21066;-73
2022/04/22 03:16:50;;;;;;;22.67;17.52;;;32.40;94.50;;;;;;1794420;77;21076;-72
2022/04/22 03:19:22;;;;;;;25.40;16.30;;;32.30;94.20;;;;;;1805433;77;21695;-73
2022/04/22 03:21:53;;;;;;;21.37;16.90;;;32.40;94.10;;;;;;1871987;76;21099;-73
2022/04/22 03:24:23;;;;;;;21.23;16.30;;;32.20;94.10;;;;;;1866238;76;21195;-72
2022/04/22 03:26:55;;;;;;;18.82;15.15;;;32.30;93.90;;;;;;1869293;76;21227;-73
2022/04/22 03:29:26;;;;;;;26.45;15.72;;;32.40;93.80;;;;;;1870967;76;21121;-72
2022/04/22 03:31:57;;;;;;;20.57;15.93;;;32.60;93.60;;;;;;1873352;75;21641;-74
2022/04/22 03:34:32;;;;;;;17.67;14.33;;;32.60;95.40;;;;;;1868874;76;21234;-74
2022/04/22 03:37:06;;;;;;;21.17;13.88;;;32.70;99.90;;;;;;1870925;76;21195;-73
2022/04/22 03:39:37;;;;;;;21.52;15.75;;;32.70;82.10;;;;;;1844681;77;21150;-73
2022/04/22 03:42:08;;;;;;;20.45;14.55;;;32.90;88.50;;;;;;1846267;77;21079;-72
2022/04/22 03:44:39;;;;;;;21.27;14.73;;;32.90;70.50;;;;;;1836950;77;21724;-73
2022/04/22 03:47:10;;;;;;;20.72;15.83;;;33.00;71.40;;;;;;1832740;77;21160;-72
2022/04/22 03:49:48;;;;;;;20.88;16.32;;;33.20;79.90;;;;;;1820214;77;21511;-73
2022/04/22 03:52:19;;;;;;;27.42;18.20;;;33.30;75.00;;;;;;1854248;77;21545;-73
2022/04/22 03:54:50;;;;;;;26.85;17.98;;;33.40;81.40;;;;;;1814974;79;21637;-73
2022/04/22 03:59:56;;;;;;;23.83;18.27;;;33.20;72.60;;;;;;1842820;77;21541;-73
2022/04/22 04:02:28;;;;;;;24.18;17.95;;;33.20;72.60;;;;;;1835538;76;21554;-73
2022/04/22 04:05:01;;;;;;;21.20;17.10;;;33.20;72.20;;;;;;1838325;76;21157;-74
2022/04/22 04:07:31;;;;;;;20.75;17.32;;;33.20;72.20;;;;;;1836103;77;21289;-74
2022/04/22 04:17:41;;;;;;;22.67;16.77;;;33.00;72.20;;;;;;1831238;77;21158;-73
2022/04/22 04:25:22;;;;;;;23.10;17.55;;;33.20;76.60;;;;;;1862131;76;21164;-73
2022/04/22 04:27:54;;;;;;;22.52;15.28;;;33.20;77.40;;;;;;1855449;76;21081;-74
2022/04/22 04:30:25;;;;;;;22.27;15.75;;;33.10;76.20;;;;;;1847958;77;21134;-73
2022/04/22 04:32:56;;;;;;;18.50;15.13;;;33.10;76.10;;;;;;1845955;76;21075;-74
2022/04/22 04:35:27;;;;;;;25.43;15.72;;;32.90;76.00;;;;;;1860440;77;21137;-74
2022/04/22 04:37:58;;;;;;;24.82;16.42;;;32.90;76.50;;;;;;1853063;77;21101;-73
2022/04/22 04:40:30;;;;;;;23.52;16.87;;;32.80;77.30;;;;;;1844022;76;21487;-73
2022/04/22 04:43:06;;;;;;;22.52;16.27;;;32.50;77.50;;;;;;1834920;77;21138;-75
2022/04/22 04:45:37;;;;;;;21.75;16.10;;;32.50;77.60;;;;;;1840055;77;21144;-74
2022/04/22 04:48:09;;;;;;;22.30;15.83;;;32.40;77.70;;;;;;1847683;77;21079;-73
2022/04/22 04:51:01;;;;;;;23.62;15.58;;;32.20;78.00;;;;;;1862714;77;21662;-74
2022/04/22 04:53:21;;;;;;;20.82;15.55;;;32.20;78.50;;;;;;1840689;77;21087;-75
2022/04/22 04:55:58;;;;;;;18.98;15.78;;;32.30;78.90;;;;;;1847594;77;21625;-75
2022/04/22 04:58:37;;;;;;;22.62;15.40;;;32.40;78.40;;;;;;1846026;77;21637;-72
2022/04/22 05:01:10;;;;;;;19.52;14.95;;;32.60;76.80;;;;;;1850127;77;21279;-74
2022/04/22 05:03:41;;;;;;;23.62;15.60;;;32.70;76.20;;;;;;1847397;77;21130;-73
2022/04/22 05:06:13;;;;;;;23.05;17.67;;;32.80;75.90;;;;;;1847327;76;21142;-74
2022/04/22 05:08:44;;;;;;;21.07;18.42;;;32.90;75.90;;;;;;1851163;77;21220;-74
2022/04/22 05:11:17;;;;;;;29.35;20.17;;;32.90;76.80;;;;;;1853550;76;21078;-74
2022/04/22 05:13:48;;;;;;;27.42;19.52;;;32.80;77.20;;;;;;1850305;76;21166;-74
2022/04/22 05:16:22;;;;;;;25.15;19.75;;;32.80;77.40;;;;;;1851640;76;21566;-73
2022/04/22 05:18:53;;;;;;;24.85;18.65;;;32.90;77.90;;;;;;1850854;76;21142;-72
2022/04/22 05:21:25;;;;;;;28.15;20.10;;;32.60;77.50;;;;;;1850287;77;21094;-73
2022/04/22 05:23:58;;;;;;;25.25;17.85;;;32.70;77.70;;;;;;1837937;77;21408;-73
2022/04/22 05:26:29;;;;;;;24.85;17.75;;;32.50;77.50;;;;;;1836766;77;21166;-73
2022/04/22 05:29:00;;;;;;;21.97;18.55;;;32.60;77.60;;;;;;1838523;77;21208;-74
2022/04/22 05:34:06;;;;;;;25.35;18.23;;;32.70;77.50;;;;;;1837003;77;21083;-73
2022/04/22 05:36:37;;;;;;;22.17;18.57;;;32.70;77.10;;;;;;1835071;77;21279;-73
2022/04/22 05:39:10;;;;;;;22.55;17.80;;;32.60;76.80;;;;;;1837190;77;21156;-74
2022/04/22 05:41:40;;;;;;;20.50;17.10;;;32.70;77.50;;;;;;1837906;77;21607;-73
2022/04/22 05:44:11;;;;;;;28.77;18.90;;;32.70;78.00;;;;;;1834359;77;21091;-72
2022/04/22 05:46:48;;;;;;;24.82;17.75;;;32.60;78.00;;;;;;1837843;76;21141;-74
2022/04/22 05:49:20;;;;;;;25.37;17.48;;;32.40;78.00;;;;;;1836452;77;21436;-73
2022/04/22 05:51:52;;;;;;;25.75;18.02;;;32.50;78.10;;;;;;1836742;77;21289;-73
2022/04/22 05:54:23;;;;;;;20.02;16.52;;;32.60;77.70;;;;;;1831640;77;21605;-73
2022/04/22 05:56:57;;;;;;;20.60;16.57;;;32.70;77.40;;;;;;1836933;77;21603;-74
2022/04/22 05:59:29;;;;;;;24.05;17.27;;;32.60;76.90;;;;;;1833528;77;21572;-76
2022/04/22 06:02:00;;;;;;;19.57;15.65;;;32.60;77.40;;;;;;1831158;77;21075;-74
2022/04/22 06:04:36;;;;;;;24.90;16.77;;;32.80;77.40;;;;;;1836666;77;21141;-74
2022/04/22 06:07:07;;;;;;;25.32;16.30;;;32.80;76.70;;;;;;1838572;77;21885;-73
2022/04/22 06:12:13;;;;;;;22.82;16.30;;;33.20;75.60;;;;;;1842516;77;21764;-73
2022/04/22 06:14:46;;;;;;;24.02;17.37;;;33.30;75.20;;;;;;1816727;77;21583;-73
2022/04/22 06:17:15;;;;;;;23.75;16.52;;;;;;;;;;1836271;77;21115;-73
2022/04/22 06:19:46;;;;;;;22.40;16.15;;;33.60;69.40;;;;;;1856218;76;21121;-72
2022/04/22 06:22:17;;;;;;;25.92;16.07;;;33.60;70.00;;;;;;1779306;79;21250;-71
2022/04/22 06:24:48;;;;;;;22.13;15.58;;;33.70;72.00;;;;;;1843845;77;21162;-70
2022/04/22 06:27:22;;;;;;;26.42;15.72;;;33.90;83.40;;;;;;1844834;77;21178;-72
2022/04/22 06:29:55;;;;;;;20.35;15.48;;;33.50;83.00;;;;;;1831779;77;21236;-72
2022/04/22 06:32:27;;;;;;;21.15;15.65;;;33.80;80.60;;;;;;1851689;77;21149;-72
2022/04/22 06:34:57;;;;;;;22.48;16.55;;;;;;;;;;1851465;77;21540;-71
2022/04/22 06:37:35;;;;;;;27.65;15.32;;;34.00;91.80;;;;;;1854026;77;21134;-72
2022/04/22 06:47:50;;;;;;;18.77;14.03;;;33.90;92.10;;;;;;1827358;77;21134;-73
2022/04/22 06:50:21;;;;;;;16.25;13.53;;;33.90;90.50;;;;;;1842522;77;21111;-73
2022/04/22 06:52:52;;;;;;;16.25;13.50;;;33.90;90.60;;;;;;1836908;77;21084;-72
2022/04/22 06:55:24;;;;;;;19.60;14.20;;;34.00;90.00;;;;;;1854037;77;21139;-72
2022/04/22 06:58:15;;;;;;;22.07;14.78;;;34.10;90.30;;;;;;1851542;77;21534;-72
2022/04/22 07:00:48;;;;;;;21.05;13.72;;;34.00;91.80;;;;;;1889792;75;21645;-72
2022/04/22 07:03:22;;;;;;;24.12;14.93;;;34.00;91.70;;;;;;1892113;76;21056;-72
2022/04/22 07:05:57;;;;;;;22.07;15.00;;;33.90;93.20;;;;;;1894202;76;21509;-72
2022/04/22 07:08:28;;;;;;;18.02;14.55;;;34.10;93.40;;;;;;1875360;76;21145;-72
2022/04/22 07:11:01;;;;;;;19.67;15.03;;;33.80;94.20;;;;;;1882749;76;21520;-72
2022/04/22 07:13:37;;;;;;;18.15;14.63;;;33.60;92.80;;;;;;1874577;76;21095;-72
2022/04/22 07:16:10;;;;;;;19.02;14.93;;;33.50;92.40;;;;;;1863522;76;21606;-72
2022/04/22 07:18:42;;;;;;;20.92;15.65;;;33.50;92.10;;;;;;1885715;76;21111;-72
2022/04/22 07:21:13;;;;;;;18.70;15.25;;;33.50;91.80;;;;;;1880923;76;21150;-72
2022/04/22 07:23:46;;;;;;;19.07;14.33;;;33.30;91.60;;;;;;1875639;76;21523;-73
2022/04/22 07:26:19;;;;;;;19.00;14.90;;;33.30;90.60;;;;;;1868073;76;21123;-72
2022/04/22 07:29:00;;;;;;;21.93;15.65;;;33.10;89.80;;;;;;1890162;76;21648;-72
2022/04/22 07:31:32;;;;;;;21.25;15.63;;;33.10;91.80;;;;;;1869499;76;21232;-71
2022/04/22 07:34:19;;;;;;;20.75;14.90;;;33.20;92.60;;;;;;1873761;76;21621;-72
2022/04/22 07:36:44;;;;;;;23.57;15.48;;;33.10;92.50;;;;;;1846609;76;21107;-73
2022/04/22 07:39:16;;;;;;;20.85;15.35;;;33.40;92.90;;;;;;1893987;76;21111;-73
2022/04/22 07:41:49;;;;;;;20.85;15.80;;;33.30;92.80;;;;;;1882697;76;21111;-72
2022/04/22 07:46:58;;;;;;;18.23;13.93;;;33.40;92.40;;;;;;1874765;76;21087;-72
2022/04/22 07:49:29;;;;;;;20.62;15.70;;;33.30;93.20;;;;;;1873784;76;21251;-72
2022/04/22 07:52:02;;;;;;;20.08;14.55;;;33.30;93.70;;;;;;1871214;76;21079;-72
2022/04/22 07:54:34;;;;;;;17.90;14.40;;;33.30;94.20;;;;;;1871513;76;21651;-72
2022/04/22 07:57:05;;;;;;;22.22;14.65;;;33.30;93.80;;;;;;1875479;76;21508;-72
2022/04/22 07:59:36;;;;;;;21.20;13.72;;;33.30;93.40;;;;;;1871039;75;21240;-72
2022/04/22 08:02:08;;;;;;;19.25;11.93;;;33.20;92.80;;;;;;1842962;76;21597;-72
2022/04/22 08:04:40;;;;;;;20.35;14.33;;;33.20;91.80;;;;;;1872198;76;21116;-72
2022/04/22 08:07:11;;;;;;;21.17;15.43;;;33.30;92.40;;;;;;1854387;76;21587;-72
2022/04/22 08:09:47;;;;;;;19.23;14.45;;;33.20;93.90;;;;;;1862932;76;21288;-72
2022/04/22 08:12:18;;;;;;;22.35;15.53;;;33.10;94.50;;;;;;1886446;76;22265;-72
2022/04/22 08:14:49;;;;;;;20.52;15.50;;;33.10;95.40;;;;;;1886149;75;21067;-72
2022/04/22 08:17:21;;;;;;;19.57;15.63;;;33.00;96.40;;;;;;1879045;75;21184;-72
2022/04/22 08:19:52;;;;;;;20.35;16.07;;;33.00;96.50;;;;;;1872753;75;21139;-72
2022/04/22 08:22:23;;;;;;;21.87;16.67;;;32.80;96.90;;;;;;1879256;75;21684;-72
2022/04/22 08:24:55;;;;;;;28.17;17.12;;;32.80;98.80;;;;;;1876264;75;21100;-71
2022/04/22 08:27:28;;;;;;;24.07;17.27;;;32.70;99.00;;;;;;1877244;75;21124;-71
2022/04/22 08:29:59;;;;;;;23.30;16.40;;;32.40;98.90;;;;;;1850761;76;21106;-71
2022/04/22 08:32:31;;;;;;;34.65;18.15;;;32.40;98.70;;;;;;1872601;76;21637;-72
2022/04/22 08:35:01;;;;;;;24.82;16.60;;;32.40;98.90;;;;;;1876637;75;21139;-73
2022/04/22 08:37:32;;;;;;;24.57;17.30;;;32.30;99.70;;;;;;1874269;75;21209;-72
2022/04/22 08:40:07;;;;;;;25.17;18.57;;;32.00;99.90;;;;;;1876872;75;21224;-73
2022/04/22 08:42:40;;;;;;;22.93;18.35;;;32.00;99.90;;;;;;1878162;75;21503;-74
2022/04/22 08:45:12;;;;;;;27.50;18.67;;;31.90;99.90;;;;;;1875746;75;21174;-73
2022/04/22 08:50:19;;;;;;;28.40;21.07;;;32.20;99.80;;;;;;1880580;75;21071;-72
2022/04/22 08:52:49;;;;;;;28.12;18.95;;;32.10;98.70;;;;;;1876016;75;21622;-73
2022/04/22 08:55:21;;;;;;;25.82;18.65;;;31.90;98.40;;;;;;1879995;75;21511;-72
2022/04/22 08:57:54;;;;;;;27.90;19.48;;;32.00;97.90;;;;;;1877813;75;21523;-72
2022/04/22 09:00:29;;;;;;;24.52;19.25;;;31.90;96.80;;;;;;1876925;75;21067;-72
2022/04/22 09:02:59;;;;;;;24.32;17.65;;;31.90;96.50;;;;;;1878997;76;21208;-74
2022/04/22 09:05:36;;;;;;;24.10;18.48;;;32.10;96.30;;;;;;1863393;76;21557;-75
2022/04/22 09:08:08;;;;;;;29.55;19.02;;;32.10;96.30;;;;;;1874250;76;21178;-73
2022/04/22 09:10:42;;;;;;;24.52;17.73;;;31.80;96.30;;;;;;1884889;76;21103;-74
2022/04/22 09:13:15;;;;;;;21.62;17.17;;;31.90;96.30;;;;;;1879733;76;21060;-74
2022/04/22 09:15:47;;;;;;;24.20;17.77;;;31.80;96.20;;;;;;1878927;75;21221;-72
2022/04/22 09:18:19;;;;;;;27.58;17.90;;;31.80;95.80;;;;;;1886936;75;21063;-73
2022/04/22 09:20:50;;;;;;;23.87;17.55;;;31.70;95.90;;;;;;1867468;74;21063;-73
2022/04/22 09:23:23;;;;;;;25.15;18.52;;;31.70;96.00;;;;;;1878601;76;21075;-72
2022/04/22 09:25:55;;;;;;;23.67;17.67;;;31.60;96.10;;;;;;1862795;76;21130;-72
2022/04/22 09:28:27;;;;;;;20.85;15.93;;;31.60;96.10;;;;;;1879112;76;21123;-72
2022/04/22 09:31:00;;;;;;;25.25;16.05;;;31.60;96.20;;;;;;1888611;76;21099;-73
2022/04/22 09:33:34;;;;;;;21.55;15.53;;;31.80;95.70;;;;;;1868882;76;21527;-82
2022/04/22 09:43:51;;;;;;;18.52;15.03;;;31.70;94.50;;;;;;1850581;76;21163;-81
2022/04/22 09:46:30;;;;;;;18.70;14.85;;;31.90;94.30;;;;;;1854989;76;21131;-80
2022/04/22 09:49:01;;;;;;;17.87;14.38;;;31.70;94.30;;;;;;1856858;76;21045;-82
2022/04/22 09:51:32;;;;;;;18.27;14.00;;;31.70;94.30;;;;;;1862882;76;21144;-82
2022/04/22 09:54:06;;;;;;;15.75;14.07;;;31.60;93.90;;;;;;1852344;76;21676;-81
2022/04/22 09:56:38;;;;;;;20.52;13.78;;;31.70;93.60;;;;;;1878182;76;21150;-83
2022/04/22 09:59:11;;;;;;;20.17;16.12;;;31.70;93.70;;;;;;1867823;76;21823;-81
2022/04/22 10:01:42;;;;;;;21.60;16.55;;;31.80;93.60;;;;;;1859619;76;21107;-80
2022/04/22 10:04:16;;;;;;;23.90;16.97;;;31.80;93.70;;;;;;1845911;78;21107;-81
2022/04/22 10:06:48;;;;;;;25.20;17.25;;;31.70;93.60;;;;;;1856028;76;21185;-81
2022/04/22 10:09:20;;;;;;;24.25;16.75;;;31.70;93.60;;;;;;1867930;76;21126;-82
2022/04/22 10:11:54;;;;;;;22.32;16.32;;;31.60;93.70;;;;;;1867871;76;21169;-81
2022/04/22 10:14:27;;;;;;;20.20;15.95;;;31.80;93.80;;;;;;1864943;76;21160;-82
2022/04/22 10:17:04;;;;;;;28.02;16.57;;;31.80;94.00;;;;;;1878836;75;21073;-82
2022/04/22 10:19:36;;;;;;;22.25;16.15;;;31.70;94.20;;;;;;1845485;76;21101;-81
2022/04/22 10:22:10;;;;;;;19.15;15.40;;;31.70;94.40;;;;;;1841626;77;21081;-82
2022/04/22 10:24:43;;;;;;;23.57;16.05;;;31.80;95.60;;;;;;1834447;76;21185;-82
2022/04/22 10:27:16;;;;;;;21.30;16.32;;;31.70;95.60;;;;;;1863051;76;21193;-81
2022/04/22 10:29:47;;;;;;;22.87;16.30;;;31.60;95.70;;;;;;1863502;76;21170;-83
2022/04/22 10:32:19;;;;;;;24.92;15.93;;;31.70;96.90;;;;;;1848122;77;21147;-81
2022/04/22 10:34:53;;;;;;;21.55;15.05;;;31.60;96.30;;;;;;1850384;76;21419;-81
2022/04/22 10:37:29;;;;;;;24.82;15.60;;;31.50;96.00;;;;;;1855102;76;21147;-82
2022/04/22 10:39:59;;;;;;;23.40;14.87;;;31.40;95.90;;;;;;1874086;76;21752;-82
2022/04/22 10:42:32;;;;;;;20.90;14.98;;;31.40;96.10;;;;;;1849540;76;21112;-82
2022/04/22 10:47:42;;;;;;;20.30;15.10;;;31.30;96.30;;;;;;1852244;76;21087;-83
2022/04/22 10:50:15;;;;;;;21.02;15.20;;;31.40;96.30;;;;;;1868373;76;21146;-82
2022/04/22 10:52:54;;;;;;;26.35;15.70;;;31.30;96.40;;;;;;1857906;76;21159;-83
2022/04/22 10:55:33;;;;;;;21.45;15.70;;;31.30;96.30;;;;;;1850147;76;21516;-82
2022/04/22 10:58:25;;;;;;;19.50;15.88;;;31.30;96.40;;;;;;1862756;76;21095;-84
2022/04/22 11:00:58;;;;;;;21.20;16.32;;;31.40;96.60;;;;;;1897195;74;21079;-82
2022/04/22 11:03:37;;;;;;;24.35;15.65;;;31.40;96.40;;;;;;1889484;75;21271;-82
2022/04/22 11:06:05;;;;;;;24.85;16.55;;;31.40;96.70;;;;;;1885437;75;21194;-83
2022/04/22 11:08:40;;;;;;;22.60;16.15;;;31.30;96.50;;;;;;1895348;75;21138;-83
2022/04/22 11:11:13;;;;;;;22.62;16.00;;;31.30;96.60;;;;;;1835944;78;21106;-81
2022/04/22 11:13:51;;;;;;;25.32;15.85;;;31.40;96.60;;;;;;1816642;78;21684;-81
2022/04/22 11:16:32;;;;;;;23.92;16.37;;;31.30;96.50;;;;;;1892200;75;21118;-82
2022/04/22 11:19:02;;;;;;;22.25;15.60;;;31.40;96.60;;;;;;1888803;75;21494;-82
2022/04/22 11:21:36;;;;;;;30.62;16.77;;;31.30;97.30;;;;;;1889461;75;21052;-82
2022/04/22 11:24:09;;;;;;;21.10;17.55;;;31.40;97.30;;;;;;1882370;75;21072;-82
2022/04/22 11:26:41;;;;;;;26.55;17.70;;;31.50;95.70;;;;;;1900481;75;21146;-82
2022/04/22 11:29:13;;;;;;;23.98;17.35;;;31.50;96.10;;;;;;1903842;75;21048;-82
2022/04/22 11:31:49;;;;;;;25.65;16.93;;;31.40;96.40;;;;;;1874097;75;21091;-82
2022/04/22 11:34:25;;;;;;;23.80;15.63;;;31.50;97.20;;;;;;1886134;74;21122;-81
2022/04/22 11:36:56;;;;;;;21.10;15.70;;;31.40;96.70;;;;;;1886598;74;21135;-80
2022/04/22 11:39:27;;;;;;;20.75;15.98;;;31.50;96.80;;;;;;1889233;75;21176;-82
2022/04/22 11:42:04;;;;;;;23.65;15.72;;;31.60;97.00;;;;;;1885700;75;21051;-81
2022/04/22 11:44:36;;;;;;;21.48;14.75;;;31.60;95.30;;;;;;1887567;75;21122;-83
2022/04/22 11:47:07;;;;;;;18.62;14.23;;;31.30;95.50;;;;;;1883196;75;21087;-83
2022/04/22 11:49:40;;;;;;;18.17;13.98;;;31.40;95.60;;;;;;1903922;74;21604;-82
2022/04/22 11:52:10;;;;;;;21.27;14.38;;;31.30;95.70;;;;;;1899031;75;21068;-82
2022/04/22 11:54:46;;;;;;;18.27;14.85;;;31.20;96.00;;;;;;1897347;75;21201;-82
2022/04/22 11:57:21;;;;;;;20.17;14.35;;;31.30;96.40;;;;;;1851659;75;21079;-81
2022/04/22 12:05:32;;;;;;;24.12;15.70;;;31.10;97.60;;;;;;1897064;74;21083;-82
2022/04/22 12:08:21;;;;;;;25.95;16.48;;;31.10;98.60;;;;;;1892610;74;21144;-82
2022/04/22 12:11:03;;;;;;;19.05;15.20;;;31.00;98.90;;;;;;1829388;77;21107;-84
2022/04/22 12:13:42;;;;;;;20.55;15.78;;;30.80;97.60;;;;;;1831909;77;21170;-81
2022/04/22 12:16:24;;;;;;;22.00;14.10;;;30.80;97.70;;;;;;1851324;77;21155;-84
2022/04/22 12:19:14;;;;;;;14.35;10.45;;;30.70;97.60;;;;;;1837370;76;21637;-84
2022/04/22 12:21:53;;;;;;;14.60;9.75;;;30.70;97.10;;;;;;1860464;77;21104;-83
2022/04/22 12:24:24;;;;;;;13.28;9.20;;;30.40;96.90;;;;;;1861238;77;21095;-81
2022/04/22 12:26:55;;;;;;;11.20;8.18;;;30.40;98.00;;;;;;1853736;77;21162;-82
2022/04/22 12:29:27;;;;;;;9.83;7.95;;;30.30;98.20;;;;;;1834708;77;21119;-82
2022/04/22 12:31:58;;;;;;;14.10;9.45;;;30.10;97.90;;;;;;1771371;81;21112;-82
2022/04/22 12:34:34;;;;;;;11.10;8.80;;;30.10;98.70;;;;;;1778460;81;21199;-81
2022/04/22 12:37:07;;;;;;;13.10;9.70;;;30.10;99.90;;;;;;1783574;79;21191;-81
2022/04/22 12:39:41;;;;;;;14.30;9.03;;;30.20;99.90;;;;;;1797953;79;21104;-82
2022/04/22 12:42:16;;;;;;;12.33;9.00;;;29.90;99.50;;;;;;1787937;79;21549;-82
2022/04/22 12:52:08;;;;;;;12.58;9.70;;;31.00;96.20;;;;;;1860971;77;21104;-82
2022/04/22 12:52:31;;;;;;;15.65;10.28;;;29.40;92.90;;;;;;1850188;76;21086;-83
2022/04/22 12:55:05;;;;;;;12.30;9.75;;;29.30;91.40;;;;;;1890425;76;21213;-82
2022/04/22 12:57:39;;;;;;;13.68;9.78;;;29.30;87.50;;;;;;1893926;74;21094;-83
2022/04/22 13:00:12;;;;;;;15.45;9.25;;;29.30;88.60;;;;;;1886212;74;21086;-82
2022/04/22 13:02:45;;;;;;;14.38;8.55;;;29.40;88.30;;;;;;1917018;74;21078;-82
2022/04/22 13:05:18;;;;;;;12.98;8.45;;;29.40;88.70;;;;;;1907413;74;21183;-84
2022/04/22 13:07:51;;;;;;;13.10;9.83;;;29.20;84.70;;;;;;1896109;74;21157;-82
2022/04/22 13:10:24;;;;;;;14.75;10.60;;;29.10;87.50;;;;;;1905411;74;21086;-83
2022/04/22 13:12:57;;;;;;;27.07;13.25;;;29.00;91.70;;;;;;1923376;74;21075;-83
2022/04/22 13:15:28;;;;;;;36.13;17.73;;;28.80;90.70;;;;;;1917011;74;21144;-83
2022/04/22 13:17:58;;;;;;;28.38;16.62;;;28.60;99.00;;;;;;1893866;74;21145;-82
2022/04/22 13:20:30;;;;;;;26.82;17.87;;;28.50;99.90;;;;;;1912108;74;21102;-82
2022/04/22 13:23:01;;;;;;;23.98;16.62;;;27.80;94.70;;;;;;1889979;75;21154;-81
2022/04/22 13:25:32;;;;;;;24.92;16.77;;;27.80;95.20;;;;;;1890282;76;21094;-82
2022/04/22 13:28:04;;;;;;;26.30;16.30;;;27.60;95.50;;;;;;1890165;74;21140;-83
2022/04/22 13:30:37;;;;;;;21.17;15.38;;;27.40;95.90;;;;;;1895394;74;21168;-82
2022/04/22 13:33:07;;;;;;;21.25;15.53;;;27.40;95.80;;;;;;1923084;74;21071;-82
2022/04/22 13:35:39;;;;;;;21.90;15.60;;;27.40;98.40;;;;;;1922962;74;21144;-82
2022/04/22 13:38:10;;;;;;;23.30;16.20;;;27.40;99.90;;;;;;1892857;74;21125;-82
2022/04/22 13:40:41;;;;;;;15.50;10.80;;;27.40;99.90;;;;;;1900667;74;21078;-81
2022/04/22 13:43:11;;;;;;;9.80;7.55;;;27.90;99.90;;;;;;1922570;74;21300;-82
2022/04/22 13:53:25;;;;;;;10.55;6.87;;;27.70;99.90;;;;;;1920880;74;21090;-81
2022/04/22 13:55:56;;;;;;;9.18;6.17;;;27.70;99.90;;;;;;1923422;74;21055;-81
2022/04/22 13:58:27;;;;;;;9.68;6.22;;;27.70;99.90;;;;;;1901564;74;21164;-82
2022/04/22 14:00:59;;;;;;;9.58;6.42;;;27.60;99.90;;;;;;1901185;74;21146;-82
2022/04/22 14:03:32;;;;;;;8.83;6.55;;;28.60;99.90;;;;;;1917527;74;21215;-82
2022/04/22 14:06:02;;;;;;;8.45;6.58;;;27.60;99.90;;;;;;1904244;75;21047;-82
2022/04/22 14:08:34;;;;;;;8.75;7.40;;;28.60;99.90;;;;;;1904567;75;21064;-81